sensor_id;sensor_type;location;lat;lon;timestamp;P1;durP1;ratioP1;P2;durP2;ratioP2
6537;SDS011;3302;52.508;13.454;2023-03-01T00:01:58;14.00;;;8.57;;
6537;SDS011;3302;52.508;13.454;2023-03-01T00:04:24;14.93;;;8.10;;
6537;SDS011;3302;52.508;13.454;2023-03-01T00:06:50;15.80;;;8.73;;
6537;SDS011;3302;52.508;13.454;2023-03-01T00:09:16;18.07;;;8.90;;
6537;SDS011;3302;52.508;13.454;2023-03-01T00:11:42;13.70;;;8.37;;
6537;SDS011;3302;52.508;13.454;2023-03-01T00:14:09;14.40;;;8.40;;
6537;SDS011;3302;52.508;13.454;2023-03-01T00:16:41;13.20;;;8.40;;
6537;SDS011;3302;52.508;13.454;2023-03-01T00:19:10;11.47;;;7.53;;
6537;SDS011;3302;52.508;13.454;2023-03-01T00:21:40;16.03;;;8.63;;
6537;SDS011;3302;52.508;13.454;2023-03-01T00:24:07;14.50;;;8.47;;
6537;SDS011;3302;52.508;13.454;2023-03-01T00:26:33;17.03;;;8.90;;
6537;SDS011;3302;52.508;13.454;2023-03-01T00:28:59;19.53;;;10.37;;
6537;SDS011;3302;52.508;13.454;2023-03-01T00:31:27;19.43;;;9.57;;
6537;SDS011;3302;52.508;13.454;2023-03-01T00:33:55;16.70;;;9.00;;
6537;SDS011;3302;52.508;13.454;2023-03-01T00:36:23;15.63;;;9.20;;
6537;SDS011;3302;52.508;13.454;2023-03-01T00:38:50;15.23;;;8.43;;
6537;SDS011;3302;52.508;13.454;2023-03-01T00:41:17;14.57;;;9.07;;
6537;SDS011;3302;52.508;13.454;2023-03-01T00:43:44;15.50;;;9.17;;
6537;SDS011;3302;52.508;13.454;2023-03-01T00:46:14;21.53;;;9.60;;
6537;SDS011;3302;52.508;13.454;2023-03-01T00:48:44;16.37;;;9.30;;
6537;SDS011;3302;52.508;13.454;2023-03-01T00:51:18;15.47;;;9.13;;
6537;SDS011;3302;52.508;13.454;2023-03-01T00:53:46;15.80;;;9.00;;
6537;SDS011;3302;52.508;13.454;2023-03-01T00:56:13;16.27;;;8.83;;
6537;SDS011;3302;52.508;13.454;2023-03-01T00:58:40;15.23;;;8.63;;
6537;SDS011;3302;52.508;13.454;2023-03-01T01:01:07;16.87;;;8.80;;
6537;SDS011;3302;52.508;13.454;2023-03-01T01:03:52;15.07;;;8.37;;
6537;SDS011;3302;52.508;13.454;2023-03-01T01:06:24;13.13;;;7.90;;
6537;SDS011;3302;52.508;13.454;2023-03-01T01:08:55;12.97;;;7.20;;
6537;SDS011;3302;52.508;13.454;2023-03-01T01:11:22;11.97;;;7.27;;
6537;SDS011;3302;52.508;13.454;2023-03-01T01:13:50;10.23;;;6.27;;
6537;SDS011;3302;52.508;13.454;2023-03-01T01:16:17;12.30;;;7.00;;
6537;SDS011;3302;52.508;13.454;2023-03-01T01:18:44;11.90;;;6.90;;
6537;SDS011;3302;52.508;13.454;2023-03-01T01:21:12;13.17;;;6.87;;
6537;SDS011;3302;52.508;13.454;2023-03-01T01:23:40;12.50;;;7.77;;
6537;SDS011;3302;52.508;13.454;2023-03-01T01:26:07;11.03;;;7.53;;
6537;SDS011;3302;52.508;13.454;2023-03-01T01:29:00;12.20;;;6.90;;
6537;SDS011;3302;52.508;13.454;2023-03-01T01:31:27;10.37;;;7.50;;
6537;SDS011;3302;52.508;13.454;2023-03-01T01:33:53;11.50;;;7.30;;
6537;SDS011;3302;52.508;13.454;2023-03-01T01:36:20;12.50;;;7.60;;
6537;SDS011;3302;52.508;13.454;2023-03-01T01:38:46;12.83;;;7.90;;
6537;SDS011;3302;52.508;13.454;2023-03-01T01:41:12;11.63;;;7.67;;
6537;SDS011;3302;52.508;13.454;2023-03-01T01:43:39;11.70;;;7.33;;
6537;SDS011;3302;52.508;13.454;2023-03-01T01:46:15;11.77;;;7.00;;
6537;SDS011;3302;52.508;13.454;2023-03-01T01:48:55;14.73;;;8.17;;
6537;SDS011;3302;52.508;13.454;2023-03-01T01:51:25;12.50;;;7.40;;
6537;SDS011;3302;52.508;13.454;2023-03-01T01:54:03;11.57;;;7.47;;
6537;SDS011;3302;52.508;13.454;2023-03-01T01:56:35;13.03;;;7.53;;
6537;SDS011;3302;52.508;13.454;2023-03-01T01:59:02;14.87;;;8.10;;
6537;SDS011;3302;52.508;13.454;2023-03-01T02:01:28;14.47;;;7.77;;
6537;SDS011;3302;52.508;13.454;2023-03-01T02:03:54;13.10;;;7.43;;
6537;SDS011;3302;52.508;13.454;2023-03-01T02:06:31;12.73;;;7.60;;
6537;SDS011;3302;52.508;13.454;2023-03-01T02:09:07;14.53;;;7.63;;
6537;SDS011;3302;52.508;13.454;2023-03-01T02:11:37;11.37;;;7.47;;
6537;SDS011;3302;52.508;13.454;2023-03-01T02:14:03;16.13;;;7.67;;
6537;SDS011;3302;52.508;13.454;2023-03-01T02:16:30;10.17;;;7.13;;
6537;SDS011;3302;52.508;13.454;2023-03-01T02:18:56;14.77;;;8.37;;
6537;SDS011;3302;52.508;13.454;2023-03-01T02:24:50;18.03;;;8.77;;
6537;SDS011;3302;52.508;13.454;2023-03-01T02:26:50;12.70;;;7.57;;
6537;SDS011;3302;52.508;13.454;2023-03-01T02:29:20;14.90;;;7.37;;
6537;SDS011;3302;52.508;13.454;2023-03-01T02:31:47;11.43;;;7.50;;
6537;SDS011;3302;52.508;13.454;2023-03-01T02:34:15;12.20;;;7.57;;
6537;SDS011;3302;52.508;13.454;2023-03-01T02:36:48;13.97;;;8.20;;
6537;SDS011;3302;52.508;13.454;2023-03-01T02:39:18;15.80;;;8.37;;
6537;SDS011;3302;52.508;13.454;2023-03-01T02:41:52;13.53;;;9.03;;
6537;SDS011;3302;52.508;13.454;2023-03-01T02:44:21;14.87;;;8.97;;
6537;SDS011;3302;52.508;13.454;2023-03-01T02:46:51;15.63;;;9.50;;
6537;SDS011;3302;52.508;13.454;2023-03-01T02:51:47;15.07;;;9.50;;
6537;SDS011;3302;52.508;13.454;2023-03-01T02:54:41;16.53;;;8.83;;
6537;SDS011;3302;52.508;13.454;2023-03-01T02:57:16;18.97;;;10.40;;
6537;SDS011;3302;52.508;13.454;2023-03-01T02:59:42;20.47;;;10.30;;
6537;SDS011;3302;52.508;13.454;2023-03-01T03:02:22;18.87;;;10.87;;
6537;SDS011;3302;52.508;13.454;2023-03-01T03:05:11;25.47;;;13.10;;
6537;SDS011;3302;52.508;13.454;2023-03-01T03:07:40;28.47;;;13.60;;
6537;SDS011;3302;52.508;13.454;2023-03-01T03:10:15;17.30;;;10.77;;
6537;SDS011;3302;52.508;13.454;2023-03-01T03:12:49;17.00;;;10.27;;
6537;SDS011;3302;52.508;13.454;2023-03-01T03:15:16;17.30;;;10.10;;
6537;SDS011;3302;52.508;13.454;2023-03-01T03:17:42;20.33;;;10.90;;
6537;SDS011;3302;52.508;13.454;2023-03-01T03:20:09;15.53;;;9.40;;
6537;SDS011;3302;52.508;13.454;2023-03-01T03:22:40;12.90;;;8.30;;
6537;SDS011;3302;52.508;13.454;2023-03-01T03:25:06;14.27;;;8.30;;
6537;SDS011;3302;52.508;13.454;2023-03-01T03:27:36;22.87;;;13.00;;
6537;SDS011;3302;52.508;13.454;2023-03-01T03:30:05;33.57;;;17.10;;
6537;SDS011;3302;52.508;13.454;2023-03-01T03:32:35;28.77;;;14.77;;
6537;SDS011;3302;52.508;13.454;2023-03-01T03:35:01;20.33;;;11.50;;
6537;SDS011;3302;52.508;13.454;2023-03-01T03:37:40;16.50;;;10.10;;
6537;SDS011;3302;52.508;13.454;2023-03-01T03:40:25;18.60;;;10.30;;
6537;SDS011;3302;52.508;13.454;2023-03-01T03:42:51;23.50;;;12.27;;
6537;SDS011;3302;52.508;13.454;2023-03-01T03:45:17;24.37;;;12.13;;
6537;SDS011;3302;52.508;13.454;2023-03-01T03:47:44;23.00;;;12.67;;
6537;SDS011;3302;52.508;13.454;2023-03-01T03:50:13;22.50;;;12.40;;
6537;SDS011;3302;52.508;13.454;2023-03-01T03:52:41;20.13;;;12.13;;
6537;SDS011;3302;52.508;13.454;2023-03-01T03:55:08;19.17;;;10.80;;
6537;SDS011;3302;52.508;13.454;2023-03-01T03:57:42;14.90;;;10.53;;
6537;SDS011;3302;52.508;13.454;2023-03-01T04:00:11;20.90;;;12.20;;
6537;SDS011;3302;52.508;13.454;2023-03-01T04:02:41;20.13;;;12.00;;
6537;SDS011;3302;52.508;13.454;2023-03-01T04:05:08;23.17;;;13.10;;
6537;SDS011;3302;52.508;13.454;2023-03-01T04:07:36;25.87;;;14.27;;
6537;SDS011;3302;52.508;13.454;2023-03-01T04:10:07;22.50;;;12.07;;
6537;SDS011;3302;52.508;13.454;2023-03-01T04:12:35;22.33;;;11.60;;
6537;SDS011;3302;52.508;13.454;2023-03-01T04:15:01;15.03;;;9.87;;
6537;SDS011;3302;52.508;13.454;2023-03-01T04:17:38;14.40;;;9.63;;
6537;SDS011;3302;52.508;13.454;2023-03-01T04:20:09;21.67;;;10.70;;
6537;SDS011;3302;52.508;13.454;2023-03-01T04:22:37;16.50;;;9.77;;
6537;SDS011;3302;52.508;13.454;2023-03-01T04:25:03;16.27;;;9.37;;
6537;SDS011;3302;52.508;13.454;2023-03-01T04:27:34;13.37;;;9.43;;
6537;SDS011;3302;52.508;13.454;2023-03-01T04:30:01;16.43;;;11.50;;
6537;SDS011;3302;52.508;13.454;2023-03-01T04:32:28;21.37;;;11.50;;
6537;SDS011;3302;52.508;13.454;2023-03-01T04:34:54;18.50;;;11.50;;
6537;SDS011;3302;52.508;13.454;2023-03-01T04:37:20;15.67;;;10.43;;
6537;SDS011;3302;52.508;13.454;2023-03-01T04:39:45;14.30;;;9.43;;
6537;SDS011;3302;52.508;13.454;2023-03-01T04:42:12;14.13;;;8.80;;
6537;SDS011;3302;52.508;13.454;2023-03-01T04:44:38;15.23;;;8.90;;
6537;SDS011;3302;52.508;13.454;2023-03-01T04:47:04;12.97;;;9.03;;
6537;SDS011;3302;52.508;13.454;2023-03-01T04:49:31;14.87;;;8.93;;
6537;SDS011;3302;52.508;13.454;2023-03-01T04:51:57;12.40;;;8.23;;
6537;SDS011;3302;52.508;13.454;2023-03-01T04:54:30;13.47;;;9.07;;
6537;SDS011;3302;52.508;13.454;2023-03-01T04:56:57;15.00;;;9.50;;
6537;SDS011;3302;52.508;13.454;2023-03-01T04:59:23;15.77;;;9.10;;
6537;SDS011;3302;52.508;13.454;2023-03-01T05:01:53;16.10;;;9.43;;
6537;SDS011;3302;52.508;13.454;2023-03-01T05:04:23;16.43;;;9.73;;
6537;SDS011;3302;52.508;13.454;2023-03-01T05:06:49;17.23;;;10.17;;
6537;SDS011;3302;52.508;13.454;2023-03-01T05:09:16;19.80;;;12.83;;
6537;SDS011;3302;52.508;13.454;2023-03-01T05:11:42;20.63;;;11.70;;
6537;SDS011;3302;52.508;13.454;2023-03-01T05:14:08;19.17;;;10.57;;
6537;SDS011;3302;52.508;13.454;2023-03-01T05:16:34;20.03;;;10.40;;
6537;SDS011;3302;52.508;13.454;2023-03-01T05:19:02;21.13;;;12.20;;
6537;SDS011;3302;52.508;13.454;2023-03-01T05:21:40;19.83;;;11.30;;
6537;SDS011;3302;52.508;13.454;2023-03-01T05:24:25;16.90;;;10.53;;
6537;SDS011;3302;52.508;13.454;2023-03-01T05:26:52;18.57;;;10.27;;
6537;SDS011;3302;52.508;13.454;2023-03-01T05:29:19;19.33;;;10.27;;
6537;SDS011;3302;52.508;13.454;2023-03-01T05:31:53;19.43;;;10.53;;
6537;SDS011;3302;52.508;13.454;2023-03-01T05:34:24;19.43;;;11.40;;
6537;SDS011;3302;52.508;13.454;2023-03-01T05:36:57;22.80;;;12.57;;
6537;SDS011;3302;52.508;13.454;2023-03-01T05:39:25;19.13;;;11.87;;
6537;SDS011;3302;52.508;13.454;2023-03-01T05:41:52;21.43;;;11.30;;
6537;SDS011;3302;52.508;13.454;2023-03-01T05:44:19;16.60;;;10.37;;
6537;SDS011;3302;52.508;13.454;2023-03-01T05:46:45;22.00;;;11.43;;
6537;SDS011;3302;52.508;13.454;2023-03-01T05:49:12;19.77;;;11.00;;
6537;SDS011;3302;52.508;13.454;2023-03-01T05:51:41;19.60;;;11.57;;
6537;SDS011;3302;52.508;13.454;2023-03-01T05:54:08;20.33;;;11.43;;
6537;SDS011;3302;52.508;13.454;2023-03-01T05:56:35;16.10;;;10.83;;
6537;SDS011;3302;52.508;13.454;2023-03-01T05:59:02;19.77;;;11.63;;
6537;SDS011;3302;52.508;13.454;2023-03-01T06:01:28;20.10;;;12.40;;
6537;SDS011;3302;52.508;13.454;2023-03-01T06:03:54;18.30;;;11.77;;
6537;SDS011;3302;52.508;13.454;2023-03-01T06:06:22;24.57;;;14.23;;
6537;SDS011;3302;52.508;13.454;2023-03-01T06:08:49;22.83;;;13.33;;
6537;SDS011;3302;52.508;13.454;2023-03-01T06:11:15;22.27;;;13.27;;
6537;SDS011;3302;52.508;13.454;2023-03-01T06:13:42;28.27;;;14.83;;
6537;SDS011;3302;52.508;13.454;2023-03-01T06:16:08;23.43;;;14.37;;
6537;SDS011;3302;52.508;13.454;2023-03-01T06:18:34;26.37;;;14.63;;
6537;SDS011;3302;52.508;13.454;2023-03-01T06:21:01;24.43;;;13.97;;
6537;SDS011;3302;52.508;13.454;2023-03-01T06:23:26;20.57;;;12.80;;
6537;SDS011;3302;52.508;13.454;2023-03-01T06:25:52;22.47;;;13.17;;
6537;SDS011;3302;52.508;13.454;2023-03-01T06:28:18;21.57;;;13.53;;
6537;SDS011;3302;52.508;13.454;2023-03-01T06:30:44;21.67;;;13.63;;
6537;SDS011;3302;52.508;13.454;2023-03-01T06:33:10;20.20;;;12.63;;
6537;SDS011;3302;52.508;13.454;2023-03-01T06:35:36;22.47;;;12.73;;
6537;SDS011;3302;52.508;13.454;2023-03-01T06:38:02;20.83;;;13.40;;
6537;SDS011;3302;52.508;13.454;2023-03-01T06:40:29;22.80;;;14.17;;
6537;SDS011;3302;52.508;13.454;2023-03-01T06:42:56;22.40;;;13.73;;
6537;SDS011;3302;52.508;13.454;2023-03-01T06:45:22;24.67;;;13.37;;
6537;SDS011;3302;52.508;13.454;2023-03-01T06:47:49;23.53;;;13.43;;
6537;SDS011;3302;52.508;13.454;2023-03-01T06:50:16;27.17;;;15.10;;
6537;SDS011;3302;52.508;13.454;2023-03-01T06:52:43;23.77;;;14.37;;
6537;SDS011;3302;52.508;13.454;2023-03-01T06:55:10;20.70;;;12.53;;
6537;SDS011;3302;52.508;13.454;2023-03-01T06:57:37;27.80;;;14.50;;
6537;SDS011;3302;52.508;13.454;2023-03-01T07:00:04;21.40;;;14.13;;
6537;SDS011;3302;52.508;13.454;2023-03-01T07:02:31;22.17;;;13.60;;
6537;SDS011;3302;52.508;13.454;2023-03-01T07:04:56;22.00;;;13.77;;
6537;SDS011;3302;52.508;13.454;2023-03-01T07:07:22;22.50;;;13.67;;
6537;SDS011;3302;52.508;13.454;2023-03-01T07:09:49;19.70;;;12.87;;
6537;SDS011;3302;52.508;13.454;2023-03-01T07:12:15;24.30;;;13.90;;
6537;SDS011;3302;52.508;13.454;2023-03-01T07:14:41;24.20;;;14.17;;
6537;SDS011;3302;52.508;13.454;2023-03-01T07:17:09;21.93;;;13.60;;
6537;SDS011;3302;52.508;13.454;2023-03-01T07:19:35;23.37;;;14.07;;
6537;SDS011;3302;52.508;13.454;2023-03-01T07:22:00;29.97;;;14.87;;
6537;SDS011;3302;52.508;13.454;2023-03-01T07:24:26;34.50;;;16.30;;
6537;SDS011;3302;52.508;13.454;2023-03-01T07:26:52;36.37;;;17.20;;
6537;SDS011;3302;52.508;13.454;2023-03-01T07:29:18;35.93;;;16.50;;
6537;SDS011;3302;52.508;13.454;2023-03-01T07:31:44;26.63;;;15.23;;
6537;SDS011;3302;52.508;13.454;2023-03-01T07:34:10;25.00;;;14.20;;
6537;SDS011;3302;52.508;13.454;2023-03-01T07:36:36;29.43;;;15.77;;
6537;SDS011;3302;52.508;13.454;2023-03-01T07:39:02;22.97;;;14.53;;
6537;SDS011;3302;52.508;13.454;2023-03-01T07:41:29;26.37;;;13.90;;
6537;SDS011;3302;52.508;13.454;2023-03-01T07:43:55;27.60;;;14.80;;
6537;SDS011;3302;52.508;13.454;2023-03-01T07:46:21;17.80;;;11.60;;
6537;SDS011;3302;52.508;13.454;2023-03-01T07:48:47;20.77;;;12.80;;
6537;SDS011;3302;52.508;13.454;2023-03-01T07:51:13;20.97;;;12.47;;
6537;SDS011;3302;52.508;13.454;2023-03-01T07:53:39;21.10;;;12.50;;
6537;SDS011;3302;52.508;13.454;2023-03-01T07:56:09;23.83;;;13.40;;
6537;SDS011;3302;52.508;13.454;2023-03-01T07:58:36;18.33;;;11.80;;
6537;SDS011;3302;52.508;13.454;2023-03-01T08:01:07;19.93;;;11.60;;
6537;SDS011;3302;52.508;13.454;2023-03-01T08:03:35;14.93;;;10.20;;
6537;SDS011;3302;52.508;13.454;2023-03-01T08:06:03;14.83;;;9.73;;
6537;SDS011;3302;52.508;13.454;2023-03-01T08:08:31;28.07;;;15.07;;
6537;SDS011;3302;52.508;13.454;2023-03-01T08:10:57;12.87;;;8.43;;
6537;SDS011;3302;52.508;13.454;2023-03-01T08:13:24;12.20;;;7.57;;
6537;SDS011;3302;52.508;13.454;2023-03-01T08:15:50;12.77;;;7.47;;
6537;SDS011;3302;52.508;13.454;2023-03-01T08:18:17;12.27;;;7.77;;
6537;SDS011;3302;52.508;13.454;2023-03-01T08:20:43;10.27;;;7.40;;
6537;SDS011;3302;52.508;13.454;2023-03-01T08:23:09;15.33;;;7.77;;
6537;SDS011;3302;52.508;13.454;2023-03-01T08:25:35;12.70;;;6.67;;
6537;SDS011;3302;52.508;13.454;2023-03-01T08:28:01;9.83;;;6.30;;
6537;SDS011;3302;52.508;13.454;2023-03-01T08:30:28;9.63;;;6.57;;
6537;SDS011;3302;52.508;13.454;2023-03-01T08:32:54;11.70;;;6.63;;
6537;SDS011;3302;52.508;13.454;2023-03-01T08:35:20;8.57;;;5.57;;
6537;SDS011;3302;52.508;13.454;2023-03-01T08:37:46;11.07;;;7.20;;
6537;SDS011;3302;52.508;13.454;2023-03-01T08:40:12;9.80;;;6.53;;
6537;SDS011;3302;52.508;13.454;2023-03-01T08:42:39;12.50;;;6.73;;
6537;SDS011;3302;52.508;13.454;2023-03-01T08:45:06;10.10;;;7.00;;
6537;SDS011;3302;52.508;13.454;2023-03-01T08:47:32;12.90;;;7.40;;
6537;SDS011;3302;52.508;13.454;2023-03-01T08:49:59;10.17;;;6.50;;
6537;SDS011;3302;52.508;13.454;2023-03-01T08:52:25;12.47;;;7.23;;
6537;SDS011;3302;52.508;13.454;2023-03-01T08:54:52;9.73;;;6.47;;
6537;SDS011;3302;52.508;13.454;2023-03-01T08:57:18;11.00;;;6.97;;
6537;SDS011;3302;52.508;13.454;2023-03-01T08:59:44;16.67;;;7.47;;
6537;SDS011;3302;52.508;13.454;2023-03-01T09:02:13;10.93;;;7.43;;
6537;SDS011;3302;52.508;13.454;2023-03-01T09:04:42;11.23;;;6.90;;
6537;SDS011;3302;52.508;13.454;2023-03-01T09:07:08;10.83;;;7.07;;
6537;SDS011;3302;52.508;13.454;2023-03-01T09:09:34;11.20;;;7.13;;
6537;SDS011;3302;52.508;13.454;2023-03-01T09:12:00;11.17;;;7.10;;
6537;SDS011;3302;52.508;13.454;2023-03-01T09:14:26;11.43;;;7.10;;
6537;SDS011;3302;52.508;13.454;2023-03-01T09:16:53;10.10;;;6.80;;
6537;SDS011;3302;52.508;13.454;2023-03-01T09:19:18;9.13;;;5.57;;
6537;SDS011;3302;52.508;13.454;2023-03-01T09:21:44;11.73;;;5.87;;
6537;SDS011;3302;52.508;13.454;2023-03-01T09:24:17;8.80;;;5.73;;
6537;SDS011;3302;52.508;13.454;2023-03-01T09:26:48;11.43;;;6.00;;
6537;SDS011;3302;52.508;13.454;2023-03-01T09:29:14;8.07;;;5.53;;
6537;SDS011;3302;52.508;13.454;2023-03-01T09:31:41;11.97;;;6.70;;
6537;SDS011;3302;52.508;13.454;2023-03-01T09:34:08;8.70;;;5.83;;
6537;SDS011;3302;52.508;13.454;2023-03-01T09:36:34;10.20;;;5.77;;
6537;SDS011;3302;52.508;13.454;2023-03-01T09:39:00;10.83;;;6.20;;
6537;SDS011;3302;52.508;13.454;2023-03-01T09:47:23;5.30;;;4.00;;
6537;SDS011;3302;52.508;13.454;2023-03-01T09:52:59;6.37;;;3.50;;
6537;SDS011;3302;52.508;13.454;2023-03-01T09:58:46;5.50;;;3.47;;
6537;SDS011;3302;52.508;13.454;2023-03-01T10:07:45;6.30;;;3.70;;
6537;SDS011;3302;52.508;13.454;2023-03-01T10:09:57;6.37;;;4.00;;
6537;SDS011;3302;52.508;13.454;2023-03-01T10:12:26;8.30;;;3.90;;
6537;SDS011;3302;52.508;13.454;2023-03-01T10:23:07;5.53;;;4.07;;
6537;SDS011;3302;52.508;13.454;2023-03-01T10:31:27;7.27;;;4.27;;
6537;SDS011;3302;52.508;13.454;2023-03-01T10:36:39;5.50;;;3.67;;
6537;SDS011;3302;52.508;13.454;2023-03-01T10:39:11;7.13;;;4.23;;
6537;SDS011;3302;52.508;13.454;2023-03-01T10:41:55;5.17;;;3.70;;
6537;SDS011;3302;52.508;13.454;2023-03-01T10:44:46;5.47;;;3.80;;
6537;SDS011;3302;52.508;13.454;2023-03-01T10:47:23;8.17;;;4.23;;
6537;SDS011;3302;52.508;13.454;2023-03-01T10:49:58;5.43;;;3.83;;
6537;SDS011;3302;52.508;13.454;2023-03-01T10:52:25;5.87;;;3.63;;
6537;SDS011;3302;52.508;13.454;2023-03-01T10:57:43;4.97;;;3.17;;
6537;SDS011;3302;52.508;13.454;2023-03-01T11:00:17;5.27;;;3.27;;
6537;SDS011;3302;52.508;13.454;2023-03-01T11:02:48;5.73;;;3.23;;
6537;SDS011;3302;52.508;13.454;2023-03-01T11:05:20;5.33;;;3.23;;
6537;SDS011;3302;52.508;13.454;2023-03-01T11:08:02;5.57;;;3.73;;
6537;SDS011;3302;52.508;13.454;2023-03-01T11:10:33;6.20;;;3.40;;
6537;SDS011;3302;52.508;13.454;2023-03-01T11:13:17;6.70;;;3.30;;
6537;SDS011;3302;52.508;13.454;2023-03-01T11:16:00;5.13;;;3.27;;
6537;SDS011;3302;52.508;13.454;2023-03-01T11:18:29;4.83;;;2.73;;
6537;SDS011;3302;52.508;13.454;2023-03-01T11:20:55;2.77;;;2.20;;
6537;SDS011;3302;52.508;13.454;2023-03-01T11:23:23;4.10;;;2.33;;
6537;SDS011;3302;52.508;13.454;2023-03-01T11:25:57;3.20;;;1.97;;
6537;SDS011;3302;52.508;13.454;2023-03-01T11:28:25;3.50;;;2.00;;
6537;SDS011;3302;52.508;13.454;2023-03-01T11:30:58;3.83;;;2.00;;
6537;SDS011;3302;52.508;13.454;2023-03-01T11:33:34;2.90;;;2.23;;
6537;SDS011;3302;52.508;13.454;2023-03-01T11:36:07;2.43;;;1.87;;
6537;SDS011;3302;52.508;13.454;2023-03-01T11:38:41;4.67;;;2.30;;
6537;SDS011;3302;52.508;13.454;2023-03-01T11:41:15;2.00;;;1.80;;
6537;SDS011;3302;52.508;13.454;2023-03-01T11:48:52;4.03;;;2.83;;
6537;SDS011;3302;52.508;13.454;2023-03-01T11:51:25;2.93;;;2.27;;
6537;SDS011;3302;52.508;13.454;2023-03-01T11:57:03;3.90;;;2.43;;
6537;SDS011;3302;52.508;13.454;2023-03-01T11:59:48;3.80;;;2.20;;
6537;SDS011;3302;52.508;13.454;2023-03-01T12:02:55;3.10;;;2.03;;
6537;SDS011;3302;52.508;13.454;2023-03-01T12:06:00;2.50;;;1.80;;
6537;SDS011;3302;52.508;13.454;2023-03-01T12:33:17;2.70;;;1.93;;
6537;SDS011;3302;52.508;13.454;2023-03-01T12:38:56;2.67;;;1.87;;
6537;SDS011;3302;52.508;13.454;2023-03-01T12:41:48;3.43;;;2.00;;
6537;SDS011;3302;52.508;13.454;2023-03-01T12:44:26;3.53;;;2.10;;
6537;SDS011;3302;52.508;13.454;2023-03-01T12:49:40;3.10;;;2.03;;
6537;SDS011;3302;52.508;13.454;2023-03-01T12:54:59;4.53;;;2.00;;
6537;SDS011;3302;52.508;13.454;2023-03-01T12:57:37;3.77;;;2.30;;
6537;SDS011;3302;52.508;13.454;2023-03-01T13:00:41;3.47;;;2.40;;
6537;SDS011;3302;52.508;13.454;2023-03-01T13:06:07;3.47;;;2.20;;
6537;SDS011;3302;52.508;13.454;2023-03-01T13:08:55;3.10;;;2.23;;
6537;SDS011;3302;52.508;13.454;2023-03-01T13:11:29;6.03;;;2.40;;
6537;SDS011;3302;52.508;13.454;2023-03-01T13:14:44;4.67;;;2.57;;
6537;SDS011;3302;52.508;13.454;2023-03-01T13:16:46;3.17;;;2.30;;
6537;SDS011;3302;52.508;13.454;2023-03-01T13:19:21;2.63;;;2.13;;
6537;SDS011;3302;52.508;13.454;2023-03-01T13:21:52;3.03;;;2.00;;
6537;SDS011;3302;52.508;13.454;2023-03-01T13:29:50;5.37;;;2.17;;
6537;SDS011;3302;52.508;13.454;2023-03-01T13:32:28;3.07;;;2.37;;
6537;SDS011;3302;52.508;13.454;2023-03-01T13:35:01;3.27;;;2.10;;
6537;SDS011;3302;52.508;13.454;2023-03-01T13:37:36;2.83;;;2.00;;
6537;SDS011;3302;52.508;13.454;2023-03-01T13:40:04;7.40;;;3.77;;
6537;SDS011;3302;52.508;13.454;2023-03-01T13:42:54;4.67;;;2.73;;
6537;SDS011;3302;52.508;13.454;2023-03-01T13:45:25;6.00;;;2.53;;
6537;SDS011;3302;52.508;13.454;2023-03-01T13:48:16;2.70;;;2.03;;
6537;SDS011;3302;52.508;13.454;2023-03-01T13:50:49;4.70;;;2.50;;
6537;SDS011;3302;52.508;13.454;2023-03-01T13:53:18;4.03;;;2.30;;
6537;SDS011;3302;52.508;13.454;2023-03-01T13:56:33;3.90;;;2.53;;
6537;SDS011;3302;52.508;13.454;2023-03-01T13:58:48;2.83;;;2.13;;
6537;SDS011;3302;52.508;13.454;2023-03-01T14:01:24;3.93;;;2.63;;
6537;SDS011;3302;52.508;13.454;2023-03-01T14:03:54;3.30;;;2.33;;
6537;SDS011;3302;52.508;13.454;2023-03-01T14:06:25;4.63;;;2.40;;
6537;SDS011;3302;52.508;13.454;2023-03-01T14:09:16;3.27;;;2.30;;
6537;SDS011;3302;52.508;13.454;2023-03-01T14:17:12;7.70;;;3.43;;
6537;SDS011;3302;52.508;13.454;2023-03-01T14:19:46;5.13;;;2.20;;
6537;SDS011;3302;52.508;13.454;2023-03-01T14:24:50;4.17;;;2.17;;
6537;SDS011;3302;52.508;13.454;2023-03-01T14:27:28;2.83;;;2.20;;
6537;SDS011;3302;52.508;13.454;2023-03-01T14:29:59;3.93;;;2.20;;
6537;SDS011;3302;52.508;13.454;2023-03-01T14:32:27;3.43;;;2.47;;
6537;SDS011;3302;52.508;13.454;2023-03-01T14:34:54;3.53;;;2.10;;
6537;SDS011;3302;52.508;13.454;2023-03-01T14:37:28;4.07;;;2.93;;
6537;SDS011;3302;52.508;13.454;2023-03-01T14:39:57;2.80;;;2.07;;
6537;SDS011;3302;52.508;13.454;2023-03-01T14:42:25;4.93;;;2.47;;
6537;SDS011;3302;52.508;13.454;2023-03-01T14:44:55;3.73;;;2.50;;
6537;SDS011;3302;52.508;13.454;2023-03-01T14:47:32;4.10;;;2.60;;
6537;SDS011;3302;52.508;13.454;2023-03-01T14:50:15;4.13;;;2.47;;
6537;SDS011;3302;52.508;13.454;2023-03-01T14:52:48;4.10;;;2.27;;
6537;SDS011;3302;52.508;13.454;2023-03-01T14:55:20;3.47;;;2.40;;
6537;SDS011;3302;52.508;13.454;2023-03-01T14:57:51;4.30;;;2.67;;
6537;SDS011;3302;52.508;13.454;2023-03-01T15:00:24;11.53;;;6.50;;
6537;SDS011;3302;52.508;13.454;2023-03-01T15:02:53;4.13;;;2.23;;
6537;SDS011;3302;52.508;13.454;2023-03-01T15:05:39;3.30;;;2.20;;
6537;SDS011;3302;52.508;13.454;2023-03-01T15:08:07;5.07;;;2.90;;
6537;SDS011;3302;52.508;13.454;2023-03-01T15:10:54;4.40;;;2.80;;
6537;SDS011;3302;52.508;13.454;2023-03-01T15:13:23;3.80;;;2.40;;
6537;SDS011;3302;52.508;13.454;2023-03-01T15:15:51;3.63;;;2.40;;
6537;SDS011;3302;52.508;13.454;2023-03-01T15:18:22;5.67;;;2.30;;
6537;SDS011;3302;52.508;13.454;2023-03-01T15:20:52;6.83;;;2.40;;
6537;SDS011;3302;52.508;13.454;2023-03-01T15:25:52;2.93;;;1.90;;
6537;SDS011;3302;52.508;13.454;2023-03-01T15:28:23;6.90;;;2.80;;
6537;SDS011;3302;52.508;13.454;2023-03-01T15:31:02;4.97;;;2.50;;
6537;SDS011;3302;52.508;13.454;2023-03-01T15:33:44;5.33;;;3.33;;
6537;SDS011;3302;52.508;13.454;2023-03-01T15:36:54;4.70;;;2.23;;
6537;SDS011;3302;52.508;13.454;2023-03-01T15:39:01;3.90;;;2.67;;
6537;SDS011;3302;52.508;13.454;2023-03-01T15:41:47;3.70;;;2.80;;
6537;SDS011;3302;52.508;13.454;2023-03-01T15:44:14;5.90;;;2.70;;
6537;SDS011;3302;52.508;13.454;2023-03-01T15:46:44;3.73;;;2.30;;
6537;SDS011;3302;52.508;13.454;2023-03-01T15:49:25;6.90;;;2.70;;
6537;SDS011;3302;52.508;13.454;2023-03-01T15:52:02;4.53;;;3.33;;
6537;SDS011;3302;52.508;13.454;2023-03-01T15:54:28;5.83;;;3.10;;
6537;SDS011;3302;52.508;13.454;2023-03-01T15:56:55;7.70;;;3.10;;
6537;SDS011;3302;52.508;13.454;2023-03-01T15:59:21;6.57;;;3.43;;
6537;SDS011;3302;52.508;13.454;2023-03-01T16:01:47;4.27;;;3.10;;
6537;SDS011;3302;52.508;13.454;2023-03-01T16:04:15;6.03;;;3.47;;
6537;SDS011;3302;52.508;13.454;2023-03-01T16:06:48;4.57;;;3.03;;
6537;SDS011;3302;52.508;13.454;2023-03-01T16:09:22;6.67;;;4.00;;
6537;SDS011;3302;52.508;13.454;2023-03-01T16:11:50;3.47;;;2.70;;
6537;SDS011;3302;52.508;13.454;2023-03-01T16:14:17;5.77;;;3.40;;
6537;SDS011;3302;52.508;13.454;2023-03-01T16:16:43;4.83;;;3.00;;
6537;SDS011;3302;52.508;13.454;2023-03-01T16:19:10;4.50;;;2.50;;
6537;SDS011;3302;52.508;13.454;2023-03-01T16:21:36;4.57;;;2.70;;
6537;SDS011;3302;52.508;13.454;2023-03-01T16:24:03;3.83;;;2.80;;
6537;SDS011;3302;52.508;13.454;2023-03-01T16:26:29;6.90;;;2.80;;
6537;SDS011;3302;52.508;13.454;2023-03-01T16:28:55;5.80;;;3.30;;
6537;SDS011;3302;52.508;13.454;2023-03-01T16:31:22;7.03;;;5.03;;
6537;SDS011;3302;52.508;13.454;2023-03-01T16:33:48;6.43;;;3.70;;
6537;SDS011;3302;52.508;13.454;2023-03-01T16:36:17;4.67;;;3.53;;
6537;SDS011;3302;52.508;13.454;2023-03-01T16:38:43;7.27;;;3.93;;
6537;SDS011;3302;52.508;13.454;2023-03-01T16:41:13;4.30;;;2.90;;
6537;SDS011;3302;52.508;13.454;2023-03-01T16:43:41;4.87;;;2.67;;
6537;SDS011;3302;52.508;13.454;2023-03-01T16:46:21;6.00;;;2.63;;
6537;SDS011;3302;52.508;13.454;2023-03-01T16:48:49;4.63;;;2.93;;
6537;SDS011;3302;52.508;13.454;2023-03-01T16:51:15;3.47;;;2.60;;